Time;durP1;ratioP1;P1;durP2;ratioP2;P2;SDS_P1;SDS_P2;PMS_P1;PMS_P2;Temp;Humidity;BMP_temperature;BMP_pressure;BME280_temperature;BME280_humidity;BME280_pressure;Samples;Min_cycle;Max_cycle;Signal;HPM_P1;HPM_P2
2022/09/05 00:00:09;;;;;;;7.00;4.50;;;;;;;24.63;47.05;101901.34;5050505;28;20025;-41
2022/09/05 00:02:53;;;;;;;9.50;4.65;;;;;;;24.61;46.94;101901.53;5054078;28;20045;-41
2022/09/05 00:05:33;;;;;;;6.78;4.90;;;;;;;24.62;46.89;101896.94;5063179;28;20052;-40
2022/09/05 00:08:13;;;;;;;7.15;4.50;;;;;;;24.61;46.91;101901.53;5061847;28;20084;-42
2022/09/05 00:10:47;;;;;;;7.10;4.65;;;;;;;24.59;46.89;101894.59;5039621;28;20033;-42
2022/09/05 00:13:22;;;;;;;6.35;4.53;;;;;;;24.59;47.09;101894.59;5060545;28;20033;-42
2022/09/05 00:16:09;;;;;;;7.80;5.05;;;;;;;24.59;46.90;101895.44;5059530;28;20027;-40
2022/09/05 00:19:14;;;;;;;7.65;5.05;;;;;;;24.59;46.98;101897.31;5061276;28;20540;-44
2022/09/05 00:21:48;;;;;;;7.22;4.72;;;;;;;24.57;47.01;101894.78;5023855;28;20037;-41
2022/09/05 00:24:28;;;;;;;6.47;4.05;;;;;;;24.57;46.98;101888.50;5040007;28;20029;-39
2022/09/05 00:27:09;;;;;;;5.50;4.00;;;;;;;24.57;46.93;101891.22;5023729;28;20033;-40
2022/09/05 00:29:46;;;;;;;7.97;4.60;;;;;;;24.56;46.93;101890.38;5040103;28;20025;-39
2022/09/05 00:32:29;;;;;;;7.50;4.40;;;;;;;24.55;46.77;101885.97;5040091;28;20068;-44
2022/09/05 00:35:22;;;;;;;5.97;4.28;;;;;;;24.55;46.79;101887.81;5041069;28;20032;-44
2022/09/05 00:37:49;;;;;;;6.18;4.18;;;;;;;24.54;46.76;101892.41;5044123;28;20025;-42
2022/09/05 00:40:38;;;;;;;6.28;4.30;;;;;;;24.54;46.82;101891.56;5044087;28;20048;-44
2022/09/05 00:43:09;;;;;;;5.45;3.72;;;;;;;24.54;46.90;101894.28;5026662;28;20136;-42
2022/09/05 00:45:41;;;;;;;5.63;3.55;;;;;;;24.53;46.54;101890.72;5027386;28;20549;-43
2022/09/05 00:48:20;;;;;;;4.93;3.55;;;;;;;24.52;46.87;101889.03;5043518;28;20049;-41
2022/09/05 00:51:12;;;;;;;5.07;3.63;;;;;;;24.51;46.79;101884.66;5028149;28;20092;-44
2022/09/05 00:53:45;;;;;;;6.53;4.00;;;;;;;24.43;46.93;101874.69;5043604;28;20037;-42
2022/09/05 00:56:21;;;;;;;6.65;3.80;;;;;;;24.51;46.78;101884.66;5027625;28;20022;-39
2022/09/05 00:59:23;;;;;;;5.13;3.60;;;;;;;24.50;46.89;101880.22;5046629;28;20057;-41
2022/09/05 01:02:10;;;;;;;6.22;3.72;;;;;;;24.50;46.68;101884.81;5055372;28;20120;-40
2022/09/05 01:04:57;;;;;;;8.25;4.68;;;;;;;24.49;46.95;101878.53;5065173;28;20120;-40
2022/09/05 01:07:34;;;;;;;4.82;3.42;;;;;;;24.47;46.65;101877.88;5066021;28;20028;-41
2022/09/05 01:10:03;;;;;;;6.03;3.88;;;;;;;24.48;46.79;101878.72;5059146;28;20036;-39
2022/09/05 01:13:04;;;;;;;7.05;4.20;;;;;;;24.48;46.77;101878.72;5065131;28;20030;-41
2022/09/05 01:15:51;;;;;;;5.65;3.72;;;;;;;24.47;46.71;101885.16;5057511;28;20044;-41
2022/09/05 01:18:45;;;;;;;6.18;3.83;;;;;;;24.46;46.78;101878.03;5051730;28;20025;-40
2022/09/05 01:21:28;;;;;;;6.93;3.90;;;;;;;24.46;46.57;101872.59;5060975;28;20047;-40
2022/09/05 01:24:02;;;;;;;4.40;3.35;;;;;;;24.44;46.71;101879.06;5064347;28;20354;-42
2022/09/05 01:26:50;;;;;;;6.43;3.92;;;;;;;24.44;46.89;101873.63;5063466;28;20927;-41
2022/09/05 01:29:25;;;;;;;5.93;3.58;;;;;;;24.44;46.70;101884.50;5061242;28;20027;-40
2022/09/05 01:32:24;;;;;;;5.32;3.28;;;;;;;24.44;46.80;101879.06;5045889;28;20541;-42
2022/09/05 01:35:02;;;;;;;5.13;3.75;;;;;;;24.43;46.79;101879.28;5046408;28;20029;-48
2022/09/05 01:37:39;;;;;;;5.38;3.70;;;;;;;24.43;46.79;101882.00;5065567;28;20020;-43
2022/09/05 01:40:18;;;;;;;4.75;3.35;;;;;;;24.42;47.05;101892.03;5064563;28;20025;-43
2022/09/05 01:43:09;;;;;;;5.38;3.58;;;;;;;24.42;46.66;101888.44;5063701;28;20025;-43
2022/09/05 01:45:50;;;;;;;5.72;3.22;;;;;;;24.41;46.64;101886.75;5063910;28;20029;-40
2022/09/05 01:48:38;;;;;;;4.25;3.15;;;;;;;24.41;46.84;101892.19;5058543;28;20176;-41
2022/09/05 01:51:25;;;;;;;6.70;3.20;;;;;;;24.40;46.66;101888.63;5053111;28;20470;-42
2022/09/05 01:54:12;;;;;;;4.50;2.90;;;;;;;24.40;46.66;101893.22;5065190;28;20025;-43
2022/09/05 01:56:59;;;;;;;5.20;3.10;;;;;;;24.39;46.60;101888.81;5064422;28;20040;-41
2022/09/05 01:59:47;;;;;;;4.93;3.40;;;;;;;24.39;46.64;101889.66;5052707;28;20029;-40
2022/09/05 02:02:30;;;;;;;3.85;2.88;;;;;;;24.38;46.71;101896.13;5063420;28;20032;-43
2022/09/05 02:05:13;;;;;;;4.43;2.78;;;;;;;24.38;46.61;101887.09;5064695;28;20025;-40
2022/09/05 02:08:08;;;;;;;5.05;3.22;;;;;;;24.37;46.56;101888.97;5058827;28;20052;-40
2022/09/05 02:10:42;;;;;;;4.20;3.10;;;;;;;24.36;46.61;101894.56;5060915;28;20025;-41
2022/09/05 02:13:17;;;;;;;4.20;3.00;;;;;;;24.36;46.71;101892.69;5054726;28;20017;-40
2022/09/05 02:15:46;;;;;;;4.53;3.50;;;;;;;24.35;46.68;101887.44;5058332;28;20024;-41
2022/09/05 02:18:17;;;;;;;3.72;2.92;;;;;;;24.34;46.68;101889.31;5051123;28;20025;-43
2022/09/05 02:20:56;;;;;;;4.07;3.00;;;;;;;24.31;46.41;101883.41;5052438;28;20467;-42
2022/09/05 02:23:45;;;;;;;4.13;2.83;;;;;;;24.34;46.62;101889.31;5057393;28;20025;-43
2022/09/05 02:26:22;;;;;;;4.50;3.05;;;;;;;24.34;46.67;101889.31;5055149;28;20124;-41
2022/09/05 02:28:58;;;;;;;4.55;2.83;;;;;;;24.34;46.49;101891.19;5050818;28;20016;-40
2022/09/05 02:31:30;;;;;;;4.10;2.70;;;;;;;24.33;46.49;101893.06;5049631;28;20461;-43
2022/09/05 02:34:21;;;;;;;4.35;2.78;;;;;;;24.33;46.69;101894.94;5054980;28;20048;-40
2022/09/05 02:37:03;;;;;;;3.67;2.80;;;;;;;24.33;46.45;101889.50;5058977;28;20029;-40
2022/09/05 02:39:45;;;;;;;4.60;3.22;;;;;;;24.32;46.65;101890.53;5055152;28;20031;-42
2022/09/05 02:42:23;;;;;;;4.13;2.75;;;;;;;24.31;46.56;101880.69;5050015;28;20025;-40
2022/09/05 02:44:48;;;;;;;3.83;2.40;;;;;;;24.30;46.60;101889.84;5050679;28;20033;-38
2022/09/05 02:47:21;;;;;;;4.40;2.67;;;;;;;24.30;46.58;101888.00;5063505;28;20050;-41
2022/09/05 02:50:04;;;;;;;3.97;2.72;;;;;;;24.29;46.59;101886.28;5064154;28;20020;-43
2022/09/05 02:52:31;;;;;;;2.97;2.33;;;;;;;24.29;46.62;101882.72;5043040;28;20096;-41
2022/09/05 02:54:58;;;;;;;4.28;2.75;;;;;;;24.28;46.46;101889.19;5062932;28;20104;-41
2022/09/05 02:57:33;;;;;;;4.45;2.80;;;;;;;24.28;46.60;101887.31;5057319;28;20034;-40
2022/09/05 03:00:05;;;;;;;4.00;3.08;;;;;;;24.27;46.48;101893.78;5054621;28;20028;-44
2022/09/05 03:02:56;;;;;;;4.60;3.17;;;;;;;24.26;46.65;101881.22;5049859;28;20037;-44
2022/09/05 03:05:35;;;;;;;3.08;2.42;;;;;;;24.26;46.46;101881.22;5063975;28;20025;-44
2022/09/05 03:08:15;;;;;;;3.15;2.75;;;;;;;24.25;46.53;101875.97;5062950;28;20033;-44
2022/09/05 03:10:59;;;;;;;3.80;2.95;;;;;;;24.25;46.41;101881.41;5079540;28;20024;-41
2022/09/05 03:13:58;;;;;;;4.05;2.92;;;;;;;24.24;46.40;101885.97;5052276;28;20105;-40
2022/09/05 03:16:24;;;;;;;3.80;2.65;;;;;;;24.21;46.68;101883.63;5051863;28;20101;-43
2022/09/05 03:19:19;;;;;;;3.35;2.60;;;;;;;24.22;46.55;101887.22;5053578;28;20029;-45
2022/09/05 03:22:06;;;;;;;3.45;2.45;;;;;;;24.20;46.74;101885.50;5048078;28;20074;-41
2022/09/05 03:25:09;;;;;;;3.50;2.50;;;;;;;24.20;46.71;101890.94;5063651;28;20113;-43
2022/09/05 03:28:02;;;;;;;3.35;2.22;;;;;;;24.19;46.70;101889.25;5063435;28;20448;-42
2022/09/05 03:30:46;;;;;;;4.07;2.72;;;;;;;24.19;46.54;101891.13;5051064;28;20025;-39
2022/09/05 03:33:31;;;;;;;3.17;2.40;;;;;;;24.18;46.59;101892.16;5062965;28;20020;-45
2022/09/05 03:36:18;;;;;;;3.83;2.47;;;;;;;24.16;46.61;101891.47;5062197;28;20032;-42
2022/09/05 03:39:07;;;;;;;4.35;3.15;;;;;;;24.16;46.77;101892.31;5063518;28;20021;-44
2022/09/05 03:41:54;;;;;;;3.53;2.83;;;;;;;24.16;46.61;101894.19;5048237;28;20112;-40
2022/09/05 03:44:38;;;;;;;3.80;2.80;;;;;;;24.14;46.61;101890.81;5053333;28;20029;-42
2022/09/05 03:47:20;;;;;;;3.50;2.55;;;;;;;24.14;46.55;101894.38;5059558;28;20440;-40
2022/09/05 03:50:16;;;;;;;3.25;2.20;;;;;;;24.12;46.60;101896.41;5061443;28;20025;-40
2022/09/05 03:53:02;;;;;;;2.97;2.42;;;;;;;24.13;46.63;101897.28;5046941;28;20041;-39
2022/09/05 03:55:46;;;;;;;3.28;2.58;;;;;;;24.12;46.73;101903.72;5060543;28;20029;-40
2022/09/05 03:58:27;;;;;;;3.28;2.10;;;;;;;24.12;46.48;101901.84;5050786;28;20088;-41
2022/09/05 04:01:02;;;;;;;3.22;2.13;;;;;;;24.12;46.45;101901.00;5056320;28;20022;-40
2022/09/05 04:03:37;;;;;;;2.83;2.08;;;;;;;24.11;46.70;101900.16;5050747;28;20029;-40
2022/09/05 04:06:19;;;;;;;3.80;2.60;;;;;;;24.10;46.40;101908.50;5048346;28;20028;-41
2022/09/05 04:09:00;;;;;;;3.05;2.35;;;;;;;24.11;46.46;101911.03;5062757;28;20029;-41
2022/09/05 04:11:34;;;;;;;2.72;2.35;;;;;;;24.10;46.50;101906.63;5054342;28;20021;-41
2022/09/05 04:14:04;;;;;;;4.15;2.72;;;;;;;24.07;46.59;101898.00;5064717;28;20021;-42
2022/09/05 04:16:56;;;;;;;2.38;1.75;;;;;;;24.09;46.37;101904.94;5069562;28;20033;-44
2022/09/05 04:19:41;;;;;;;2.60;2.08;;;;;;;24.09;46.43;101915.81;5065089;28;20076;-45
2022/09/05 04:22:40;;;;;;;2.60;1.95;;;;;;;24.09;46.56;101907.66;5063349;28;20051;-41
2022/09/05 04:25:20;;;;;;;4.15;2.47;;;;;;;24.08;46.39;101900.50;5061315;28;20171;-40
2022/09/05 04:27:49;;;;;;;3.33;2.33;;;;;;;24.07;46.50;101900.72;5060997;28;20613;-44
2022/09/05 04:30:33;;;;;;;2.22;1.80;;;;;;;24.05;46.57;101903.63;5055660;28;20024;-46
2022/09/05 04:33:02;;;;;;;4.15;2.58;;;;;;;24.05;46.54;101895.47;5054757;28;20086;-42
2022/09/05 04:35:37;;;;;;;2.63;2.10;;;;;;;24.06;46.56;101896.31;5054759;28;20052;-41
2022/09/05 04:38:14;;;;;;;2.22;1.85;;;;;;;24.05;46.64;101905.50;5051645;28;20032;-40
2022/09/05 04:41:02;;;;;;;2.20;1.90;;;;;;;24.05;46.38;101913.63;5057207;28;20036;-40
2022/09/05 04:43:27;;;;;;;2.80;2.20;;;;;;;24.03;46.37;101905.66;5067386;28;20040;-45
2022/09/05 04:46:17;;;;;;;2.60;2.15;;;;;;;24.03;46.42;101913.78;5069394;28;20033;-40
2022/09/05 04:48:52;;;;;;;2.72;2.00;;;;;;;24.02;46.41;101917.53;5069247;28;20433;-40
2022/09/05 04:51:42;;;;;;;3.08;2.28;;;;;;;24.02;46.37;101920.25;5059002;28;20068;-40
2022/09/05 04:54:12;;;;;;;2.70;2.20;;;;;;;24.02;46.54;101922.97;5055510;28;20017;-41
2022/09/05 04:56:42;;;;;;;3.17;2.50;;;;;;;24.01;46.45;101926.72;5069897;28;20598;-40
2022/09/05 04:59:15;;;;;;;3.25;2.05;;;;;;;24.01;46.28;101918.56;5067787;28;20048;-43
2022/09/05 05:01:55;;;;;;;2.10;1.90;;;;;;;24.00;46.50;101921.44;5084825;28;20029;-39
2022/09/05 05:04:23;;;;;;;2.72;2.00;;;;;;;24.00;46.41;101921.44;5066559;28;20559;-40
2022/09/05 05:07:04;;;;;;;2.75;2.00;;;;;;;24.00;46.61;101933.19;5065317;28;20576;-41
2022/09/05 05:09:35;;;;;;;3.42;2.35;;;;;;;23.99;46.46;101927.91;5065051;28;20064;-40
2022/09/05 05:12:20;;;;;;;2.78;2.03;;;;;;;24.00;46.27;101929.59;5062019;28;20056;-40
2022/09/05 05:14:49;;;;;;;2.25;1.92;;;;;;;23.99;46.40;101930.63;5074474;28;20009;-41
2022/09/05 05:17:35;;;;;;;2.83;1.90;;;;;;;23.99;46.44;101942.34;5054874;28;20025;-40
2022/09/05 05:20:09;;;;;;;2.30;1.88;;;;;;;23.99;46.38;101941.50;5066364;28;20021;-44
2022/09/05 05:22:36;;;;;;;2.42;2.03;;;;;;;23.95;46.50;101938.28;5064521;28;20029;-43
2022/09/05 05:25:01;;;;;;;2.47;2.13;;;;;;;23.94;46.59;101934.72;5065288;28;20025;-40
2022/09/05 05:27:40;;;;;;;2.63;2.03;;;;;;;23.98;46.36;101934.38;5063879;28;20074;-42
2022/09/05 05:30:07;;;;;;;2.33;2.05;;;;;;;23.96;46.64;101931.84;5064121;28;20025;-42
2022/09/05 05:32:35;;;;;;;2.65;2.03;;;;;;;23.98;46.50;101934.38;5070385;28;20117;-40
2022/09/05 05:35:06;;;;;;;2.22;1.73;;;;;;;23.97;46.34;101935.41;5076769;28;20082;-40
2022/09/05 05:37:36;;;;;;;3.33;2.28;;;;;;;23.97;46.40;101935.41;5065355;28;20029;-41
2022/09/05 05:40:14;;;;;;;3.05;2.03;;;;;;;23.97;46.49;101935.41;5064791;28;20027;-39
2022/09/05 05:42:40;;;;;;;2.38;1.95;;;;;;;23.92;46.21;101928.63;5064099;28;20047;-41
2022/09/05 05:45:17;;;;;;;2.15;1.60;;;;;;;23.97;46.39;101938.13;5063362;28;20058;-42
2022/09/05 05:47:44;;;;;;;2.65;2.17;;;;;;;23.93;46.48;101927.59;5064180;28;20603;-40
2022/09/05 05:50:29;;;;;;;2.60;1.90;;;;;;;23.94;46.54;101920.31;5063638;28;20043;-45
2022/09/05 05:53:28;;;;;;;2.40;1.80;;;;;;;23.97;46.54;101932.69;5063096;28;20021;-43
2022/09/05 05:56:27;;;;;;;2.63;2.33;;;;;;;23.98;46.38;101934.38;5068095;28;20028;-41
2022/09/05 05:59:12;;;;;;;2.00;1.80;;;;;;;23.95;46.50;101930.97;5061345;28;20071;-42
2022/09/05 06:02:03;;;;;;;2.25;1.83;;;;;;;23.97;46.71;101932.69;5063545;28;20021;-41
2022/09/05 06:04:37;;;;;;;2.35;1.88;;;;;;;23.97;46.44;101935.41;5063663;28;20178;-41
2022/09/05 06:07:33;;;;;;;2.70;1.80;;;;;;;23.98;46.65;101939.81;5064687;28;20085;-41
2022/09/05 06:10:28;;;;;;;2.63;1.98;;;;;;;23.97;46.62;101941.69;5063387;28;20368;-42
2022/09/05 06:13:27;;;;;;;2.15;1.90;;;;;;;23.98;46.74;101947.97;5058983;28;20025;-40
2022/09/05 06:16:20;;;;;;;3.45;2.40;;;;;;;23.97;46.67;101938.13;5062785;28;20017;-42
2022/09/05 06:19:13;;;;;;;3.22;1.92;;;;;;;23.95;46.45;101947.28;5045465;28;20140;-42
2022/09/05 06:21:53;;;;;;;2.47;1.60;;;;;;;23.97;46.83;101949.84;5062744;28;20017;-43
2022/09/05 06:24:27;;;;;;;2.13;1.83;;;;;;;23.98;46.67;101948.81;5059929;28;20115;-47
2022/09/05 06:27:11;;;;;;;2.13;1.63;;;;;;;23.99;46.76;101946.94;5046292;28;20018;-45
2022/09/05 06:30:00;;;;;;;2.65;1.75;;;;;;;23.96;46.64;101934.56;5049197;28;20029;-43
2022/09/05 06:32:35;;;;;;;2.83;1.90;;;;;;;23.98;46.64;101943.38;5053650;28;20805;-45
2022/09/05 06:35:17;;;;;;;2.28;1.80;;;;;;;23.99;46.85;101945.06;5060081;28;20516;-44
2022/09/05 06:38:22;;;;;;;3.10;1.73;;;;;;;23.99;46.92;101942.34;5054033;28;20080;-48
2022/09/05 06:40:53;;;;;;;2.25;1.80;;;;;;;24.00;47.16;101945.91;5057440;28;20453;-51
2022/09/05 06:43:51;;;;;;;3.10;2.10;;;;;;;24.02;47.14;101946.59;5044391;28;20113;-43
2022/09/05 06:46:35;;;;;;;2.17;1.90;;;;;;;24.01;47.09;101948.47;5054223;28;20089;-43
2022/09/05 06:49:15;;;;;;;2.38;1.98;;;;;;;24.02;47.19;101955.56;5061724;28;20039;-45
2022/09/05 06:51:54;;;;;;;2.17;1.88;;;;;;;24.02;47.17;101952.84;5061171;28;20021;-42
2022/09/05 06:54:31;;;;;;;;;;;;;;;23.99;47.30;101949.66;5062525;28;20111;-45
2022/09/05 06:57:09;;;;;;;2.83;2.53;;;;;;;24.00;47.12;101949.50;5060715;28;19920;-47
2022/09/05 07:00:02;;;;;;;2.22;1.98;;;;;;;24.02;47.15;101962.88;5052101;28;20085;-45
2022/09/05 07:02:34;;;;;;;2.20;2.00;;;;;;;24.03;47.35;101956.41;5061252;28;20033;-44
2022/09/05 07:05:40;;;;;;;2.75;2.47;;;;;;;24.01;47.43;101956.59;5052341;28;20033;-42
2022/09/05 07:08:14;;;;;;;2.30;2.08;;;;;;;24.05;47.43;101957.94;5015682;28;20038;-44
2022/09/05 07:10:43;;;;;;;2.33;2.00;;;;;;;24.06;47.30;101969.66;5021044;28;20081;-41
2022/09/05 07:13:11;;;;;;;2.88;2.08;;;;;;;24.06;47.36;101965.06;5003118;28;20038;-42
2022/09/05 07:15:49;;;;;;;2.45;2.15;;;;;;;24.08;47.23;101963.00;5020538;28;20807;-42
2022/09/05 07:18:27;;;;;;;2.45;2.22;;;;;;;24.08;47.38;101964.88;5018697;28;20037;-42
2022/09/05 07:20:59;;;;;;;2.38;2.13;;;;;;;24.09;47.58;101962.00;5020541;28;20030;-45
2022/09/05 07:23:51;;;;;;;2.78;2.15;;;;;;;24.09;47.47;101964.72;5020375;28;20064;-48
2022/09/05 07:26:17;;;;;;;2.78;2.35;;;;;;;24.10;47.42;101965.56;5020694;28;20046;-45
2022/09/05 07:28:46;;;;;;;2.88;2.20;;;;;;;24.09;47.36;101972.88;5020170;28;20034;-46
2022/09/05 07:31:24;;;;;;;2.65;2.35;;;;;;;24.12;47.34;101971.66;5020063;28;20097;-48
2022/09/05 07:33:50;;;;;;;3.20;2.75;;;;;;;24.12;47.45;101975.22;5018853;28;20029;-46
2022/09/05 07:36:21;;;;;;;2.25;2.05;;;;;;;24.14;47.51;101969.63;5020734;28;20034;-46
2022/09/05 07:38:49;;;;;;;3.15;2.50;;;;;;;24.16;47.44;101975.72;5036795;28;20044;-44
2022/09/05 07:41:28;;;;;;;3.75;2.55;;;;;;;24.16;47.49;101979.25;5054249;28;20045;-44
2022/09/05 07:44:06;;;;;;;2.72;2.42;;;;;;;24.18;47.42;101979.94;5059533;28;20077;-46
2022/09/05 07:46:37;;;;;;;2.65;2.10;;;;;;;24.18;47.37;101970.97;5061765;28;20036;-46
2022/09/05 07:49:06;;;;;;;3.42;2.47;;;;;;;24.18;47.44;101971.81;5055085;28;20036;-44
2022/09/05 07:51:34;;;;;;;2.58;2.25;;;;;;;24.18;47.31;101971.81;5056405;28;20477;-46
2022/09/05 07:54:02;;;;;;;2.42;2.22;;;;;;;24.20;47.46;101971.59;5062072;28;20021;-45
2022/09/05 07:56:40;;;;;;;3.25;2.50;;;;;;;24.18;47.60;101962.81;5061530;28;20155;-45
2022/09/05 07:59:09;;;;;;;3.00;2.00;;;;;;;24.21;47.31;101970.56;5058743;28;20068;-45
2022/09/05 08:01:37;;;;;;;2.65;2.20;;;;;;;24.22;47.52;101972.28;5060259;28;20033;-45
2022/09/05 08:04:02;;;;;;;3.00;2.30;;;;;;;24.21;47.40;101965.16;5060424;28;20025;-43
2022/09/05 08:06:27;;;;;;;2.95;2.65;;;;;;;24.23;47.47;101973.13;5062637;28;20044;-42
2022/09/05 08:09:03;;;;;;;4.20;2.45;;;;;;;24.25;47.59;101973.78;5059687;28;20056;-44
2022/09/05 08:11:31;;;;;;;3.20;2.40;;;;;;;24.25;47.62;101963.75;5056216;28;20123;-46
2022/09/05 08:13:58;;;;;;;2.35;2.05;;;;;;;24.26;47.54;101967.34;5058417;28;20029;-44
2022/09/05 08:16:24;;;;;;;2.47;2.28;;;;;;;24.26;47.54;101959.19;5060787;28;20036;-47
2022/09/05 08:19:21;;;;;;;2.60;2.10;;;;;;;24.29;47.37;101965.09;5050306;28;20021;-42
2022/09/05 08:21:48;;;;;;;2.78;2.50;;;;;;;24.27;47.80;101958.16;5062566;28;20067;-42
2022/09/05 08:24:32;;;;;;;2.38;1.83;;;;;;;24.30;47.51;101957.78;5052587;28;20048;-45
2022/09/05 08:27:12;;;;;;;2.50;2.30;;;;;;;24.31;47.62;101960.34;5051331;28;20028;-40
2022/09/05 08:29:42;;;;;;;3.03;2.28;;;;;;;24.32;47.68;101967.47;5051659;28;20025;-41
2022/09/05 08:32:14;;;;;;;2.42;2.20;;;;;;;24.34;47.51;101962.72;5057577;28;20017;-44
2022/09/05 08:34:42;;;;;;;2.42;1.95;;;;;;;24.35;47.73;101969.84;5049841;28;20052;-42
2022/09/05 08:37:15;;;;;;;2.45;1.92;;;;;;;24.40;47.56;101955.75;5054288;28;20051;-41
2022/09/05 08:39:42;;;;;;;1.92;1.80;;;;;;;24.42;47.63;101964.53;5052866;28;20029;-42
2022/09/05 08:42:32;;;;;;;2.30;2.10;;;;;;;24.48;47.52;101963.84;5057208;28;20013;-44
2022/09/05 08:45:16;;;;;;;2.45;2.00;;;;;;;24.50;47.64;101956.34;5049489;28;20041;-48
2022/09/05 08:47:55;;;;;;;2.28;2.00;;;;;;;24.52;47.60;101961.63;5058280;28;20055;-45
2022/09/05 08:50:27;;;;;;;2.67;1.90;;;;;;;24.51;47.62;101955.34;5059365;28;20013;-43
2022/09/05 08:53:08;;;;;;;2.17;1.75;;;;;;;24.52;47.38;101962.47;5055742;28;20039;-44
2022/09/05 08:55:57;;;;;;;2.53;1.98;;;;;;;24.53;47.26;101960.59;5050341;28;20025;-43
2022/09/05 08:58:40;;;;;;;2.28;1.83;;;;;;;24.51;47.37;101949.91;5062006;28;20122;-45
2022/09/05 09:01:24;;;;;;;2.00;1.70;;;;;;;24.55;47.12;101953.06;5055917;28;20470;-42
2022/09/05 09:04:15;;;;;;;2.20;1.80;;;;;;;24.57;47.16;101954.59;5062972;28;20025;-42
2022/09/05 09:07:11;;;;;;;2.40;1.63;;;;;;;24.59;46.95;101954.41;5053401;28;20041;-43
2022/09/05 09:09:47;;;;;;;1.85;1.63;;;;;;;24.61;47.00;101955.94;5054759;28;20468;-43
2022/09/05 09:12:19;;;;;;;2.03;1.40;;;;;;;24.64;47.03;101952.00;5060618;28;20029;-44
2022/09/05 09:15:18;;;;;;;2.15;1.75;;;;;;;24.65;47.04;101946.38;5055234;28;20032;-44
2022/09/05 09:17:44;;;;;;;2.20;1.70;;;;;;;24.66;46.95;101939.91;5063790;28;20021;-42
2022/09/05 09:20:27;;;;;;;1.55;1.45;;;;;;;24.68;46.76;101946.03;5058236;28;21004;-45
2022/09/05 09:23:10;;;;;;;2.47;1.58;;;;;;;24.71;46.77;101943.94;5064521;28;20025;-43
2022/09/05 09:25:42;;;;;;;2.05;1.63;;;;;;;24.72;46.86;101938.31;5055407;28;20026;-44
2022/09/05 09:28:41;;;;;;;2.78;1.42;;;;;;;24.74;46.73;101940.88;5060313;28;20016;-45
2022/09/05 09:31:39;;;;;;;1.70;1.60;;;;;;;24.75;46.58;101937.97;5066032;28;20413;-42
2022/09/05 09:34:30;;;;;;;1.60;1.40;;;;;;;24.77;46.80;101940.53;5043411;28;20043;-44
2022/09/05 09:37:20;;;;;;;1.90;1.50;;;;;;;24.77;46.63;101932.38;5064700;28;20033;-45
2022/09/05 09:40:03;;;;;;;2.20;1.92;;;;;;;24.76;46.76;101928.78;5051825;28;20022;-45
2022/09/05 09:42:53;;;;;;;1.73;1.50;;;;;;;24.78;46.56;101928.59;5053426;28;20036;-45
2022/09/05 09:45:52;;;;;;;1.67;1.30;;;;;;;24.80;46.58;101938.25;5062074;28;20036;-43
2022/09/05 09:48:20;;;;;;;1.85;1.30;;;;;;;24.80;46.64;101927.38;5059218;28;20385;-42
2022/09/05 09:51:03;;;;;;;1.63;1.52;;;;;;;24.83;46.58;101935.19;5064583;28;20031;-44
2022/09/05 09:53:39;;;;;;;2.60;1.75;;;;;;;24.84;46.46;101931.41;5063737;28;20040;-41
2022/09/05 09:56:10;;;;;;;2.38;1.75;;;;;;;24.86;46.58;101928.53;5065467;28;20017;-44
2022/09/05 09:59:07;;;;;;;2.05;1.70;;;;;;;24.89;46.55;101917.25;5063969;28;20072;-42
2022/09/05 10:01:41;;;;;;;2.28;1.40;;;;;;;24.89;46.53;101925.44;5065493;28;20112;-46
2022/09/05 10:04:13;;;;;;;1.67;1.58;;;;;;;24.91;46.62;101924.22;5045614;28;20025;-44
2022/09/05 10:07:03;;;;;;;3.08;2.35;;;;;;;24.93;46.60;101922.19;5064009;28;20029;-42
2022/09/05 10:09:47;;;;;;;2.17;1.60;;;;;;;24.96;46.52;101918.22;5051593;28;20029;-42
2022/09/05 10:12:54;;;;;;;1.40;1.30;;;;;;;24.98;46.50;101918.91;5061127;28;20052;-45
2022/09/05 10:15:25;;;;;;;2.35;1.70;;;;;;;25.00;46.51;101916.00;5048268;28;20040;-42
2022/09/05 10:18:20;;;;;;;1.80;1.40;;;;;;;25.03;46.34;101908.31;5059139;28;20025;-43
2022/09/05 10:21:00;;;;;;;1.92;1.27;;;;;;;25.03;46.39;101908.31;5053164;28;20051;-42
2022/09/05 10:23:45;;;;;;;1.48;1.20;;;;;;;25.06;46.19;101907.06;5062272;28;20020;-42
2022/09/05 10:26:38;;;;;;;1.60;1.33;;;;;;;25.09;46.42;101906.75;5061183;28;20498;-43
2022/09/05 10:29:10;;;;;;;1.60;1.27;;;;;;;25.10;46.12;101911.16;5061893;28;20045;-44
2022/09/05 10:31:56;;;;;;;2.72;1.38;;;;;;;25.13;46.35;101905.34;5060665;28;20031;-46
2022/09/05 10:34:44;;;;;;;1.92;1.50;;;;;;;25.15;46.22;101892.41;5055555;28;20025;-43
2022/09/05 10:37:11;;;;;;;2.05;1.30;;;;;;;25.16;46.27;101894.09;5058645;28;20056;-41
2022/09/05 10:39:42;;;;;;;1.55;1.40;;;;;;;25.16;46.41;101884.03;5047072;28;20037;-41
2022/09/05 10:42:24;;;;;;;1.80;1.52;;;;;;;25.20;46.29;101889.97;5062208;28;20025;-43
2022/09/05 10:44:55;;;;;;;2.08;1.48;;;;;;;25.21;46.39;101888.09;5058067;28;20082;-42
2022/09/05 10:47:39;;;;;;;1.38;1.20;;;;;;;25.24;46.34;101882.28;5058400;28;20045;-44
2022/09/05 10:50:15;;;;;;;1.42;1.20;;;;;;;25.21;46.61;101869.03;5058709;28;20021;-43
2022/09/05 10:52:50;;;;;;;2.08;1.35;;;;;;;25.26;46.36;101872.88;5062563;28;20029;-44
2022/09/05 10:55:27;;;;;;;1.35;1.02;;;;;;;25.27;46.48;101877.28;5053900;28;20018;-44
2022/09/05 10:58:23;;;;;;;1.67;1.10;;;;;;;25.31;46.46;101873.16;5061971;28;20057;-42
2022/09/05 11:01:31;;;;;;;1.80;1.27;;;;;;;25.33;46.59;101872.97;5060874;28;20029;-43
2022/09/05 11:04:18;;;;;;;1.63;1.30;;;;;;;25.34;46.50;101859.16;5058204;28;20063;-47
2022/09/05 11:06:43;;;;;;;1.27;0.93;;;;;;;25.36;46.62;101858.97;5063140;28;20025;-47
2022/09/05 11:09:24;;;;;;;1.92;1.67;;;;;;;25.40;46.59;101860.28;5063592;28;20063;-47
2022/09/05 11:12:04;;;;;;;1.38;1.17;;;;;;;25.42;46.82;101858.22;5059955;28;20017;-46
2022/09/05 11:14:52;;;;;;;2.15;1.30;;;;;;;25.45;46.78;101854.28;5061155;28;20021;-43
2022/09/05 11:17:29;;;;;;;2.10;1.58;;;;;;;25.43;46.89;101859.91;5061327;28;20036;-42
2022/09/05 11:20:28;;;;;;;2.10;1.40;;;;;;;25.43;46.89;101852.59;5060599;28;20031;-43
2022/09/05 11:23:00;;;;;;;1.58;1.17;;;;;;;25.42;46.96;101850.06;5059433;28;20021;-51
2022/09/05 11:25:27;;;;;;;1.88;1.48;;;;;;;25.45;46.86;101857.88;5061890;28;20122;-44
2022/09/05 11:27:53;;;;;;;1.73;1.40;;;;;;;25.45;46.99;101846.97;5057635;28;20025;-43
2022/09/05 11:30:21;;;;;;;2.80;1.40;;;;;;;25.47;46.96;101854.94;5054102;28;20488;-49
2022/09/05 11:33:05;;;;;;;1.40;1.10;;;;;;;25.48;46.85;101853.91;5077925;28;20052;-45
2022/09/05 11:35:32;;;;;;;2.67;1.55;;;;;;;25.48;46.88;101851.16;5062055;28;20024;-47
2022/09/05 11:37:58;;;;;;;1.53;1.30;;;;;;;25.47;47.07;101855.78;5052897;28;20032;-45
2022/09/05 11:40:56;;;;;;;2.73;1.40;;;;;;;25.47;46.95;101844.88;5049201;28;20271;-47
2022/09/05 11:43:40;;;;;;;1.60;1.38;;;;;;;25.46;47.14;101848.66;5056530;28;20265;-46
2022/09/05 11:46:19;;;;;;;1.80;1.45;;;;;;;25.48;46.97;101849.28;5048795;28;20033;-48
2022/09/05 11:49:24;;;;;;;2.00;1.45;;;;;;;25.48;46.98;101852.00;5055121;28;20028;-45
2022/09/05 11:52:14;;;;;;;1.67;1.27;;;;;;;25.46;47.12;101847.81;5053444;28;20033;-47
2022/09/05 11:55:21;;;;;;;2.47;1.58;;;;;;;25.48;47.05;101854.72;5053847;28;20124;-44
2022/09/05 11:58:11;;;;;;;2.20;1.25;;;;;;;25.48;47.05;101845.72;5039636;28;20053;-46
2022/09/05 12:00:55;;;;;;;1.83;1.38;;;;;;;25.49;47.07;101852.84;5037856;28;20083;-46
2022/09/05 12:03:41;;;;;;;1.67;1.55;;;;;;;25.51;47.11;101845.34;5034586;28;20034;-43
2022/09/05 12:06:10;;;;;;;1.55;1.20;;;;;;;25.51;46.90;101845.34;5015543;28;20033;-47
2022/09/05 12:08:49;;;;;;;1.98;1.27;;;;;;;25.51;46.97;101848.91;5039883;28;20064;-43
2022/09/05 12:11:30;;;;;;;2.00;1.60;;;;;;;25.53;46.89;101835.97;5033560;28;20121;-51
2022/09/05 12:14:27;;;;;;;1.80;1.33;;;;;;;25.55;46.83;101836.63;5036548;28;20021;-50
2022/09/05 12:17:20;;;;;;;2.30;1.43;;;;;;;25.56;46.85;101829.28;5028201;28;20093;-48
2022/09/05 12:19:48;;;;;;;2.97;1.67;;;;;;;25.58;46.93;101835.41;5039271;28;20025;-47
2022/09/05 12:22:33;;;;;;;1.45;1.30;;;;;;;25.57;46.84;101830.97;5039857;28;20515;-49
2022/09/05 12:25:06;;;;;;;1.40;1.20;;;;;;;25.58;46.93;101830.78;5023613;28;20037;-46